createdAt,value
2018-03-20T00:00:16.535Z,99033
2018-03-20T00:02:43.901Z,99033
2018-03-20T00:05:14.349Z,99023
2018-03-20T00:07:42.402Z,99021
2018-03-20T00:10:09.682Z,99006
2018-03-20T00:12:36.993Z,98983
2018-03-20T00:15:04.200Z,98967
2018-03-20T00:17:31.421Z,98954
2018-03-20T00:19:58.632Z,98951
2018-03-20T00:22:25.873Z,98939
2018-03-20T00:24:54.091Z,98938
2018-03-20T00:27:21.237Z,98931
2018-03-20T00:29:48.552Z,98924
2018-03-20T00:32:15.840Z,98905
2018-03-20T00:34:46.406Z,98898
2018-03-20T00:37:14.047Z,98895
2018-03-20T00:39:41.149Z,98899
2018-03-20T00:42:08.613Z,98898
2018-03-20T00:44:36.868Z,98882
2018-03-20T00:47:04.036Z,98856
2018-03-20T00:49:31.334Z,98852
2018-03-20T00:51:58.381Z,98843
2018-03-20T00:54:28.773Z,98834
2018-03-20T00:56:56.020Z,98834
2018-03-20T00:59:23.061Z,98833
2018-03-20T01:01:50.025Z,98832
2018-03-20T01:04:17.527Z,98834
2018-03-20T01:06:44.886Z,98832
2018-03-20T01:09:12.703Z,98831
2018-03-20T01:11:39.943Z,98818
2018-03-20T01:14:11.218Z,98823
2018-03-20T01:16:38.378Z,98833
2018-03-20T01:19:05.661Z,98830
2018-03-20T01:21:33.016Z,98827
2018-03-20T01:24:05.097Z,98830
2018-03-20T01:26:32.200Z,98831
2018-03-20T01:28:59.389Z,98837
2018-03-20T01:31:26.545Z,98843
2018-03-20T01:33:54.957Z,98860
2018-03-20T01:36:22.245Z,98895
2018-03-20T01:38:49.437Z,98912
2018-03-20T01:41:16.596Z,98917
2018-03-20T01:43:43.804Z,98908
2018-03-20T01:46:10.980Z,98884
2018-03-20T01:48:38.240Z,98878
2018-03-20T01:51:05.428Z,98867
2018-03-20T01:53:32.937Z,98850
2018-03-20T01:56:01.216Z,98835
2018-03-20T01:58:28.450Z,98824
2018-03-20T02:00:55.750Z,98824
2018-03-20T02:03:22.980Z,98816
2018-03-20T02:05:54.942Z,98820
2018-03-20T02:08:22.251Z,98819
2018-03-20T02:10:50.004Z,98818
2018-03-20T02:13:17.295Z,98812
2018-03-20T02:15:55.196Z,98809
2018-03-20T02:18:22.446Z,98802
2018-03-20T02:20:49.969Z,98793
2018-03-20T02:23:17.107Z,98785
2018-03-20T02:25:45.616Z,98792
2018-03-20T02:28:12.889Z,98794
2018-03-20T02:30:40.159Z,98799
2018-03-20T02:33:07.366Z,98799
2018-03-20T02:35:35.641Z,98794
2018-03-20T02:38:02.911Z,98789
2018-03-20T02:40:30.108Z,98792
2018-03-20T02:42:58.066Z,98797
2018-03-20T02:45:25.526Z,98796
2018-03-20T02:47:52.849Z,98806
2018-03-20T02:50:20.129Z,98794
2018-03-20T02:52:47.346Z,98793
2018-03-20T02:55:18.438Z,98791
2018-03-20T02:57:45.696Z,98789
2018-03-20T03:00:12.916Z,98784
2018-03-20T03:02:40.105Z,98780
2018-03-20T03:05:10.513Z,98766
2018-03-20T03:07:37.659Z,98761
2018-03-20T03:10:04.935Z,98755
2018-03-20T03:12:32.125Z,98745
2018-03-20T03:15:00.685Z,98754
2018-03-20T03:17:28.685Z,98743
2018-03-20T03:19:55.826Z,98758
2018-03-20T03:22:23.120Z,98762
2018-03-20T03:24:53.689Z,98767
2018-03-20T03:27:20.982Z,98784
2018-03-20T03:29:48.985Z,98797
2018-03-20T03:32:16.434Z,98777
2018-03-20T03:34:44.715Z,98768
2018-03-20T03:37:11.873Z,98766
2018-03-20T03:39:39.011Z,98766
2018-03-20T03:42:06.240Z,98766
2018-03-20T03:44:34.506Z,98760
2018-03-20T03:47:01.662Z,98758
2018-03-20T03:49:28.920Z,98754
2018-03-20T03:51:56.186Z,98755
2018-03-20T03:54:26.781Z,98748
2018-03-20T03:56:53.929Z,98743
2018-03-20T03:59:21.222Z,98730
2018-03-20T04:01:48.379Z,98728
2018-03-20T04:04:16.662Z,98718
2018-03-20T04:06:43.861Z,98711
2018-03-20T04:09:11.050Z,98706
2018-03-20T04:11:38.218Z,98700
2018-03-20T04:14:05.529Z,98690
2018-03-20T04:23:15.904Z,98703
2018-03-20T04:25:44.514Z,98706
2018-03-20T04:28:11.666Z,98707
2018-03-20T04:30:38.957Z,98708
2018-03-20T04:33:06.122Z,98709
2018-03-20T04:35:39.612Z,98708
2018-03-20T04:38:06.823Z,98701
2018-03-20T04:40:34.112Z,98690
2018-03-20T04:43:01.334Z,98678
2018-03-20T04:45:31.973Z,98676
2018-03-20T04:47:59.326Z,98670
2018-03-20T04:50:26.612Z,98669
2018-03-20T04:52:53.861Z,98672
2018-03-20T04:55:26.498Z,98668
2018-03-20T04:57:53.671Z,98656
2018-03-20T05:00:20.934Z,98659
2018-03-20T05:02:48.157Z,98664
2018-03-20T05:05:15.523Z,98664
2018-03-20T05:07:42.708Z,98666
2018-03-20T05:10:09.865Z,98671
2018-03-20T05:12:37.173Z,98659
2018-03-20T05:15:05.562Z,98657
2018-03-20T05:17:33.240Z,98658
2018-03-20T05:20:05.509Z,98656
2018-03-20T05:25:31.041Z,98640
2018-03-20T05:27:58.351Z,98638
2018-03-20T05:30:25.533Z,98636
2018-03-20T05:32:52.862Z,98622
2018-03-20T05:35:21.405Z,98623
2018-03-20T05:37:48.855Z,98628
2018-03-20T05:40:16.116Z,98620
2018-03-20T05:42:43.484Z,98620
2018-03-20T05:45:14.964Z,98616
2018-03-20T05:47:48.201Z,98604
2018-03-20T05:50:21.393Z,98618
2018-03-20T05:52:48.733Z,98611
2018-03-20T05:55:20.541Z,98611
2018-03-20T05:57:47.789Z,98610
2018-03-20T06:00:15.094Z,98614
2018-03-20T06:02:42.322Z,98612
2018-03-20T06:05:10.823Z,98617
2018-03-20T06:07:38.484Z,98632
2018-03-20T06:10:05.682Z,98634
2018-03-20T06:12:33.017Z,98641
2018-03-20T06:15:17.246Z,98643
2018-03-20T06:17:44.458Z,98649
2018-03-20T06:20:12.162Z,98644
2018-03-20T06:22:39.895Z,98653
2018-03-20T06:25:11.119Z,98671
2018-03-20T06:27:38.242Z,98661
2018-03-20T06:30:05.341Z,98652
2018-03-20T06:32:32.653Z,98666
2018-03-20T06:35:03.681Z,98666
2018-03-20T06:37:30.899Z,98664
2018-03-20T06:39:58.050Z,98655
2018-03-20T06:42:25.227Z,98672
2018-03-20T06:44:56.445Z,98668
2018-03-20T06:47:23.757Z,98668
2018-03-20T06:49:51.290Z,98667
2018-03-20T06:52:18.513Z,98675
2018-03-20T06:54:49.165Z,98669
2018-03-20T06:57:16.537Z,98664
2018-03-20T06:59:44.792Z,98672
2018-03-20T07:02:12.749Z,98663
2018-03-20T07:04:40.940Z,98661
2018-03-20T07:07:08.138Z,98659
2018-03-20T07:09:35.378Z,98668
2018-03-20T07:12:02.559Z,98660
2018-03-20T07:14:34.622Z,98671
2018-03-20T07:17:01.849Z,98686
2018-03-20T07:19:29.159Z,98683
2018-03-20T07:21:56.441Z,98683
2018-03-20T07:24:23.747Z,98695
2018-03-20T07:26:51.346Z,98701
2018-03-20T07:29:18.566Z,98694
2018-03-20T07:31:45.851Z,98724
2018-03-20T07:34:16.915Z,98711
2018-03-20T07:36:44.041Z,98739
2018-03-20T07:39:12.099Z,98738
2018-03-20T07:41:39.178Z,98763
2018-03-20T07:44:09.318Z,98762
2018-03-20T07:46:36.545Z,98770
2018-03-20T07:49:03.806Z,98787
2018-03-20T07:51:31.497Z,98766
2018-03-20T07:54:01.882Z,98784
2018-03-20T07:56:29.122Z,98798
2018-03-20T07:58:56.318Z,98799
2018-03-20T08:01:23.555Z,98796
2018-03-20T08:03:54.174Z,98813
2018-03-20T08:06:21.484Z,98810
2018-03-20T08:08:48.874Z,98796
2018-03-20T08:11:16.136Z,98830
2018-03-20T08:13:45.198Z,98825
2018-03-20T08:16:13.316Z,98825
2018-03-20T08:18:40.682Z,98839
2018-03-20T08:21:07.903Z,98841
2018-03-20T08:23:36.348Z,98841
2018-03-20T08:26:03.637Z,98850
2018-03-20T08:28:30.871Z,98858
2018-03-20T08:30:58.293Z,98848
2018-03-20T08:33:33.199Z,98873
2018-03-20T08:36:00.330Z,98885
2018-03-20T08:38:27.634Z,98901
2018-03-20T08:40:54.746Z,98907
2018-03-20T08:43:25.069Z,98918
2018-03-20T08:45:52.274Z,98928
2018-03-20T08:48:19.457Z,98930
2018-03-20T08:50:46.794Z,98943
2018-03-20T08:53:14.926Z,98948
2018-03-20T08:55:42.198Z,98954
2018-03-20T08:58:09.541Z,98958
2018-03-20T09:00:36.746Z,98964
2018-03-20T09:03:07.602Z,98967
2018-03-20T09:05:34.818Z,98972
2018-03-20T09:08:02.138Z,98982
2018-03-20T09:10:29.323Z,98985
2018-03-20T09:13:00.054Z,98984
2018-03-20T09:15:27.181Z,98995
2018-03-20T09:17:55.213Z,98999
2018-03-20T09:20:22.238Z,99016
2018-03-20T09:22:53.114Z,99019
2018-03-20T09:25:20.281Z,99030
2018-03-20T09:27:47.534Z,99033
2018-03-20T09:30:15.878Z,99039
2018-03-20T09:32:47.659Z,99040
2018-03-20T09:35:14.898Z,99037
2018-03-20T09:37:42.007Z,99036
2018-03-20T09:40:09.255Z,99048
2018-03-20T09:42:40.325Z,99050
2018-03-20T09:45:07.602Z,99050
2018-03-20T09:47:34.924Z,99053
2018-03-20T09:50:02.071Z,99063
2018-03-20T09:52:29.254Z,99077
2018-03-20T09:54:56.576Z,99071
2018-03-20T09:57:23.779Z,99082
2018-03-20T09:59:51.069Z,99084
2018-03-20T10:02:18.273Z,99092
2018-03-20T10:04:46.630Z,99097
2018-03-20T10:07:14.094Z,99092
2018-03-20T10:09:41.535Z,99097
2018-03-20T10:12:08.834Z,99090
2018-03-20T10:14:39.154Z,99106
2018-03-20T10:17:06.674Z,99128
2018-03-20T10:19:34.138Z,99125
2018-03-20T10:22:01.506Z,99128
2018-03-20T10:24:29.994Z,99137
2018-03-20T10:26:57.330Z,99131
2018-03-20T10:29:24.721Z,99150
2018-03-20T10:31:51.971Z,99155
2018-03-20T10:34:20.461Z,99158
2018-03-20T10:36:47.602Z,99170
2018-03-20T10:39:14.889Z,99166
2018-03-20T10:41:42.107Z,99180
2018-03-20T10:44:12.832Z,99182
2018-03-20T10:46:40.662Z,99178
2018-03-20T10:49:08.022Z,99179
2018-03-20T10:51:35.298Z,99183
2018-03-20T10:54:03.649Z,99203
2018-03-20T10:56:31.006Z,99198
2018-03-20T10:58:58.599Z,99196
2018-03-20T11:01:31.907Z,99223
2018-03-20T11:04:00.245Z,99224
2018-03-20T11:06:27.466Z,99214
2018-03-20T11:08:54.637Z,99222
2018-03-20T11:11:21.937Z,99215
2018-03-20T11:13:55.826Z,99228
2018-03-20T11:16:23.142Z,99217
2018-03-20T11:18:50.378Z,99231
2018-03-20T11:21:17.646Z,99236
2018-03-20T11:23:48.211Z,99236
2018-03-20T11:26:15.970Z,99231
2018-03-20T11:28:43.658Z,99245
2018-03-20T11:31:10.995Z,99231
2018-03-20T11:33:41.889Z,99238
2018-03-20T11:36:09.969Z,99247
2018-03-20T11:38:37.183Z,99245
2018-03-20T11:41:04.482Z,99246
2018-03-20T11:43:34.951Z,99248
2018-03-20T11:46:03.058Z,99245
2018-03-20T11:48:30.362Z,99241
2018-03-20T11:50:57.563Z,99257
2018-03-20T11:53:26.962Z,99263
2018-03-20T11:55:54.198Z,99264
2018-03-20T11:58:21.411Z,99280
2018-03-20T12:00:48.741Z,99291
2018-03-20T12:03:17.154Z,99291
2018-03-20T12:05:44.357Z,99301
2018-03-20T12:08:29.490Z,99303
2018-03-20T12:10:56.612Z,99315
2018-03-20T12:13:25.221Z,99319
2018-03-20T12:15:52.473Z,99311
2018-03-20T12:18:19.691Z,99319
2018-03-20T12:20:46.885Z,99320
2018-03-20T12:23:15.188Z,99315
2018-03-20T12:25:42.474Z,99320
2018-03-20T12:28:10.430Z,99334
2018-03-20T12:30:37.636Z,99349
2018-03-20T12:33:10.955Z,99373
2018-03-20T12:35:38.145Z,99381
2018-03-20T12:38:06.055Z,99376
2018-03-20T12:40:33.348Z,99387
2018-03-20T12:43:04.493Z,99373
2018-03-20T12:45:31.653Z,99393
2018-03-20T12:47:58.924Z,99390
2018-03-20T12:50:26.138Z,99391
2018-03-20T12:52:54.354Z,99397
2018-03-20T12:55:22.409Z,99399
2018-03-20T12:57:49.665Z,99399
2018-03-20T13:00:16.883Z,99404
2018-03-20T13:02:50.344Z,99405
2018-03-20T13:05:18.313Z,99399
2018-03-20T13:07:45.602Z,99392
2018-03-20T13:10:12.938Z,99391
2018-03-20T13:12:46.526Z,99413
2018-03-20T13:15:13.882Z,99438
2018-03-20T13:17:41.138Z,99436
2018-03-20T13:20:08.495Z,99426
2018-03-20T13:22:36.669Z,99431
2018-03-20T13:25:03.853Z,99436
2018-03-20T13:27:31.097Z,99443
2018-03-20T13:29:58.417Z,99445
2018-03-20T13:32:29.306Z,99423
2018-03-20T13:34:56.546Z,99443
2018-03-20T13:37:23.898Z,99444
2018-03-20T13:39:51.213Z,99459
2018-03-20T13:42:22.575Z,99443
2018-03-20T13:44:49.894Z,99460
2018-03-20T13:47:17.093Z,99475
2018-03-20T13:49:44.354Z,99452
2018-03-20T13:52:17.767Z,99435
2018-03-20T13:54:45.045Z,99455
2018-03-20T13:57:12.253Z,99457
2018-03-20T13:59:39.566Z,99464
2018-03-20T14:02:10.774Z,99463
2018-03-20T14:04:37.984Z,99460
2018-03-20T14:07:05.201Z,99469
2018-03-20T14:09:33.881Z,99461
2018-03-20T14:12:02.150Z,99461
2018-03-20T14:14:29.173Z,99476
2018-03-20T14:16:56.506Z,99465
2018-03-20T14:19:23.750Z,99460
2018-03-20T14:21:55.094Z,99482
2018-03-20T14:24:22.465Z,99479
2018-03-20T14:26:49.614Z,99471
2018-03-20T14:29:17.008Z,99458
2018-03-20T14:31:44.215Z,99458
2018-03-20T14:34:11.422Z,99472
2018-03-20T14:36:39.461Z,99479
2018-03-20T14:39:06.645Z,99489
2018-03-20T14:41:33.909Z,99471
2018-03-20T14:44:04.903Z,99453
2018-03-20T14:46:32.142Z,99460
2018-03-20T14:48:59.445Z,99456
2018-03-20T14:51:26.683Z,99465
2018-03-20T14:53:55.091Z,99466
2018-03-20T14:56:22.370Z,99452
2018-03-20T14:58:49.620Z,99474
2018-03-20T15:01:17.037Z,99495
2018-03-20T15:03:47.807Z,99519
2018-03-20T15:06:15.298Z,99522
2018-03-20T15:08:42.379Z,99521
2018-03-20T15:11:10.317Z,99542
2018-03-20T15:13:40.925Z,99551
2018-03-20T15:16:09.677Z,99560
2018-03-20T15:18:37.042Z,99558
2018-03-20T15:21:04.366Z,99550
2018-03-20T15:23:35.483Z,99568
2018-03-20T15:26:02.658Z,99567
2018-03-20T15:28:30.318Z,99565
2018-03-20T15:30:58.578Z,99537
2018-03-20T15:33:27.057Z,99537
2018-03-20T15:35:54.242Z,99546
2018-03-20T15:38:21.670Z,99535
2018-03-20T15:40:48.819Z,99534
2018-03-20T15:43:22.002Z,99526
2018-03-20T15:45:49.296Z,99534
2018-03-20T15:48:16.536Z,99540
2018-03-20T15:50:43.798Z,99548
2018-03-20T15:53:14.230Z,99543
2018-03-20T15:55:42.151Z,99561
2018-03-20T15:58:09.385Z,99555
2018-03-20T16:00:37.071Z,99565
2018-03-20T16:03:07.679Z,99561
2018-03-20T16:05:35.183Z,99563
2018-03-20T16:08:03.326Z,99560
2018-03-20T16:13:25.151Z,99578
2018-03-20T16:15:52.479Z,99585
2018-03-20T16:18:20.295Z,99586
2018-03-20T16:20:48.607Z,99580
2018-03-20T16:23:19.243Z,99584
2018-03-20T16:25:46.423Z,99586
2018-03-20T16:28:13.822Z,99594
2018-03-20T16:30:41.036Z,99602
2018-03-20T16:33:10.936Z,99588
2018-03-20T16:35:38.255Z,99609
2018-03-20T16:38:05.474Z,99625
2018-03-20T16:40:32.824Z,99626
2018-03-20T16:43:03.273Z,99625
2018-03-20T16:45:30.674Z,99632
2018-03-20T16:47:58.682Z,99644
2018-03-20T16:50:25.870Z,99650
2018-03-20T16:52:54.375Z,99659
2018-03-20T16:55:21.741Z,99658
2018-03-20T16:57:48.950Z,99672
2018-03-20T17:00:16.890Z,99674
2018-03-20T17:02:44.437Z,99675
2018-03-20T17:05:12.259Z,99686
2018-03-20T17:07:39.598Z,99685
2018-03-20T17:10:07.007Z,99690
2018-03-20T17:12:35.854Z,99708
2018-03-20T17:15:03.659Z,99714
2018-03-20T17:17:30.948Z,99723
2018-03-20T17:19:58.038Z,99722
2018-03-20T17:22:28.764Z,99725
2018-03-20T17:24:57.326Z,99731
2018-03-20T17:27:24.575Z,99726
2018-03-20T17:29:52.530Z,99737
2018-03-20T17:32:20.719Z,99737
2018-03-20T17:34:48.720Z,99750
2018-03-20T17:37:16.027Z,99757
2018-03-20T17:39:43.521Z,99761
2018-03-20T17:42:10.835Z,99756
2018-03-20T17:44:37.934Z,99761
2018-03-20T17:47:06.888Z,99763
2018-03-20T17:49:34.300Z,99772
2018-03-20T17:52:01.779Z,99761
2018-03-20T17:54:29.316Z,99766
2018-03-20T17:56:56.559Z,99758
2018-03-20T17:59:23.907Z,99781
2018-03-20T18:01:52.310Z,99767
2018-03-20T18:04:24.070Z,99780
2018-03-20T18:06:51.364Z,99792
2018-03-20T18:09:18.647Z,99797
2018-03-20T18:11:49.632Z,99794
2018-03-20T18:14:17.159Z,99803
2018-03-20T18:16:45.788Z,99810
2018-03-20T18:19:13.073Z,99803
2018-03-20T18:21:40.389Z,99808
2018-03-20T18:24:07.662Z,99809
2018-03-20T18:26:34.863Z,99817
2018-03-20T18:29:02.200Z,99821
2018-03-20T18:31:30.483Z,99825
2018-03-20T18:33:57.959Z,99823
2018-03-20T18:36:25.332Z,99831
2018-03-20T18:38:53.485Z,99845
2018-03-20T18:41:21.943Z,99848
2018-03-20T18:43:50.182Z,99855
2018-03-20T18:46:18.520Z,99858
2018-03-20T18:48:49.854Z,99863
2018-03-20T18:51:18.835Z,99872
2018-03-20T18:53:47.146Z,99869
2018-03-20T18:56:14.410Z,99868
2018-03-20T18:58:41.676Z,99867
2018-03-20T19:01:12.733Z,99864
2018-03-20T19:03:40.080Z,99859
2018-03-20T19:06:07.376Z,99854
2018-03-20T19:08:34.665Z,99860
2018-03-20T19:11:02.022Z,99866
2018-03-20T19:13:32.021Z,99864
2018-03-20T19:16:01.699Z,99867
2018-03-20T19:18:46.848Z,99865
2018-03-20T19:21:18.136Z,99873
2018-03-20T19:23:45.564Z,99869
2018-03-20T19:26:12.893Z,99875
2018-03-20T19:28:40.155Z,99868
2018-03-20T19:31:09.191Z,99868
2018-03-20T19:33:36.516Z,99876
2018-03-20T19:36:03.743Z,99880
2018-03-20T19:38:31.907Z,99877
2018-03-20T19:41:00.171Z,99878
2018-03-20T19:43:27.470Z,99872
2018-03-20T19:45:54.816Z,99874
2018-03-20T19:48:22.944Z,99874
2018-03-20T19:50:50.770Z,99874
2018-03-20T19:53:19.327Z,99882
2018-03-20T19:55:50.142Z,99898
2018-03-20T20:01:21.826Z,99891
2018-03-20T20:03:49.175Z,99899
2018-03-20T20:06:17.254Z,99902
2018-03-20T20:08:44.486Z,99900
2018-03-20T20:11:13.103Z,99902
2018-03-20T20:13:40.366Z,99898
2018-03-20T20:16:08.419Z,99907
2018-03-20T20:18:36.632Z,99905
2018-03-20T20:21:04.980Z,99908
2018-03-20T20:23:33.207Z,99913
2018-03-20T20:26:00.602Z,99918
2018-03-20T20:28:27.959Z,99908
2018-03-20T20:30:55.215Z,99903
2018-03-20T20:33:22.838Z,99907
2018-03-20T20:35:50.610Z,99900
2018-03-20T20:38:18.794Z,99898
2018-03-20T20:40:46.101Z,99900
2018-03-20T20:43:14.546Z,99902
2018-03-20T20:45:41.854Z,99905
2018-03-20T20:48:09.238Z,99902
2018-03-20T20:50:36.914Z,99901
2018-03-20T20:53:04.378Z,99904
2018-03-20T20:55:31.691Z,99905
2018-03-20T20:57:58.954Z,99903
2018-03-20T21:00:26.206Z,99906
2018-03-20T21:02:59.070Z,99907
2018-03-20T21:05:26.349Z,99904
2018-03-20T21:07:53.435Z,99908
2018-03-20T21:10:20.650Z,99913
2018-03-20T21:12:48.955Z,99905
2018-03-20T21:15:16.397Z,99916
2018-03-20T21:17:43.810Z,99912
2018-03-20T21:20:10.882Z,99918
2018-03-20T21:22:39.290Z,99924
2018-03-20T21:25:06.829Z,99925
2018-03-20T21:27:34.065Z,99945
2018-03-20T21:30:03.086Z,99941
2018-03-20T21:32:30.449Z,99943
2018-03-20T21:34:57.681Z,99941
2018-03-20T21:37:24.779Z,99942
2018-03-20T21:39:52.213Z,99943
2018-03-20T21:42:20.503Z,99940
2018-03-20T21:44:47.672Z,99945
2018-03-20T21:47:15.019Z,99951
2018-03-20T21:49:42.219Z,99956
2018-03-20T21:52:10.482Z,99958
2018-03-20T21:54:37.857Z,99967
2018-03-20T21:57:05.065Z,99977
2018-03-20T21:59:32.269Z,99982
2018-03-20T22:02:00.504Z,99973
2018-03-20T22:04:28.890Z,99975
2018-03-20T22:06:56.211Z,99983
2018-03-20T22:09:23.416Z,99994
2018-03-20T22:11:51.774Z,99988
2018-03-20T22:14:18.891Z,99992
2018-03-20T22:16:46.059Z,99992
2018-03-20T22:19:13.279Z,99991
2018-03-20T22:21:41.553Z,99995
2018-03-20T22:24:08.868Z,99997
2018-03-20T22:26:36.117Z,99988
2018-03-20T22:29:03.322Z,99979
2018-03-20T22:31:31.671Z,99975
2018-03-20T22:33:58.909Z,99982
2018-03-20T22:36:26.145Z,99989
2018-03-20T22:38:53.340Z,99989
2018-03-20T22:41:20.477Z,99975
2018-03-20T22:43:47.687Z,99995
2018-03-20T22:46:15.636Z,99994
2018-03-20T22:48:42.779Z,100001
2018-03-20T22:51:11.042Z,100005
2018-03-20T22:53:38.316Z,100013
2018-03-20T22:56:05.472Z,100017
2018-03-20T22:58:32.701Z,100017
2018-03-20T23:01:05.495Z,100021
2018-03-20T23:03:32.696Z,100038
2018-03-20T23:05:59.809Z,100047
2018-03-20T23:08:26.967Z,100038
2018-03-20T23:10:55.224Z,100046
2018-03-20T23:13:22.358Z,100040
2018-03-20T23:15:49.571Z,100047
2018-03-20T23:18:16.651Z,100054
2018-03-20T23:20:43.884Z,100051
2018-03-20T23:23:11.070Z,100050
2018-03-20T23:25:38.155Z,100052
2018-03-20T23:28:05.256Z,100051
2018-03-20T23:30:33.752Z,100044
2018-03-20T23:33:01.090Z,100057
2018-03-20T23:35:28.211Z,100060
2018-03-20T23:37:55.404Z,100055
2018-03-20T23:40:22.668Z,100061
2018-03-20T23:42:49.664Z,100081
2018-03-20T23:45:16.803Z,100086
2018-03-20T23:47:43.993Z,100096
2018-03-20T23:50:11.147Z,100101
2018-03-20T23:52:38.412Z,100103
2018-03-20T23:55:05.574Z,100107
2018-03-20T23:57:32.463Z,100106
2018-03-20T23:59:59.624Z,100103
